createdAt,value
2019-03-09T00:01:52.849Z,14.83
2019-03-09T00:04:21.162Z,15.10
2019-03-09T00:06:49.422Z,14.70
2019-03-09T00:09:17.694Z,15.30
2019-03-09T00:11:45.949Z,14.40
2019-03-09T00:14:14.503Z,14.38
2019-03-09T00:16:42.827Z,13.70
2019-03-09T00:19:11.334Z,13.70
2019-03-09T00:21:39.581Z,13.25
2019-03-09T00:24:15.272Z,12.43
2019-03-09T00:26:45.457Z,11.70
2019-03-09T00:29:21.050Z,12.13
2019-03-09T00:31:53.875Z,12.07
2019-03-09T00:34:22.141Z,11.53
2019-03-09T00:36:50.394Z,11.00
2019-03-09T00:39:18.662Z,9.63
2019-03-09T00:41:46.910Z,10.00
2019-03-09T00:44:15.206Z,10.93
2019-03-09T00:46:43.517Z,9.48
2019-03-09T00:49:12.023Z,9.70
2019-03-09T00:51:40.582Z,9.20
2019-03-09T00:54:08.834Z,8.13
2019-03-09T00:56:37.386Z,8.73
2019-03-09T00:59:05.657Z,7.70
2019-03-09T01:01:34.161Z,7.42
2019-03-09T01:04:02.413Z,7.30
2019-03-09T01:06:30.682Z,6.90
2019-03-09T01:08:58.934Z,6.30
2019-03-09T01:11:27.197Z,6.47
2019-03-09T01:13:55.690Z,6.28
2019-03-09T01:16:23.958Z,5.83
2019-03-09T01:18:52.202Z,6.03
2019-03-09T01:21:20.470Z,5.60
2019-03-09T01:23:48.717Z,5.30
2019-03-09T01:26:16.981Z,5.30
2019-03-09T01:28:45.497Z,4.60
2019-03-09T01:31:13.768Z,4.45
2019-03-09T01:33:42.014Z,4.20
2019-03-09T01:36:10.526Z,4.40
2019-03-09T01:38:38.773Z,4.10
2019-03-09T01:41:07.038Z,3.97
2019-03-09T01:43:35.301Z,3.67
2019-03-09T01:46:03.558Z,3.30
2019-03-09T01:48:31.862Z,3.60
2019-03-09T01:51:00.149Z,3.08
2019-03-09T01:53:36.472Z,3.40
2019-03-09T01:55:58.391Z,2.83
2019-03-09T01:58:26.658Z,3.10
2019-03-09T02:00:54.911Z,2.50
2019-03-09T02:03:23.166Z,2.40
2019-03-09T02:05:51.424Z,2.57
2019-03-09T02:08:19.680Z,2.50
2019-03-09T02:10:47.963Z,2.12
2019-03-09T02:13:16.466Z,2.00
2019-03-09T02:15:44.776Z,2.27
2019-03-09T02:18:13.020Z,1.90
2019-03-09T02:20:41.306Z,2.13
2019-03-09T02:23:09.797Z,2.07
2019-03-09T02:25:38.066Z,1.62
2019-03-09T02:28:06.382Z,1.90
2019-03-09T02:30:34.866Z,1.90
2019-03-09T02:33:03.135Z,1.45
2019-03-09T02:35:31.376Z,1.90
2019-03-09T02:38:01.301Z,1.70
2019-03-09T02:40:30.127Z,1.70
2019-03-09T02:42:58.613Z,1.62
2019-03-09T02:45:28.759Z,1.40
2019-03-09T02:47:57.015Z,1.40
2019-03-09T02:50:25.518Z,1.47
2019-03-09T02:52:53.784Z,1.40
2019-03-09T02:55:22.034Z,1.50
2019-03-09T02:57:50.288Z,1.50
2019-03-09T03:00:21.357Z,1.50
2019-03-09T03:02:54.208Z,1.30
2019-03-09T03:05:22.471Z,1.40
2019-03-09T03:07:50.727Z,1.30
2019-03-09T03:10:19.000Z,1.37
2019-03-09T03:12:47.255Z,1.40
2019-03-09T03:15:27.901Z,1.40
2019-03-09T03:17:56.395Z,1.40
2019-03-09T03:20:24.641Z,1.30
2019-03-09T03:22:52.902Z,1.53
2019-03-09T03:25:21.151Z,1.50
2019-03-09T03:27:49.405Z,1.37
2019-03-09T03:30:17.732Z,1.40
2019-03-09T03:32:46.006Z,1.40
2019-03-09T03:35:14.271Z,1.20
2019-03-09T03:37:42.760Z,1.50
2019-03-09T03:40:11.572Z,1.27
2019-03-09T03:42:40.075Z,1.40
2019-03-09T03:45:10.453Z,1.27
2019-03-09T03:47:38.721Z,1.10
2019-03-09T03:50:07.136Z,1.37
2019-03-09T03:52:35.394Z,1.23
2019-03-09T03:55:04.235Z,1.47
2019-03-09T03:57:32.489Z,1.23
2019-03-09T04:00:01.010Z,1.30
2019-03-09T04:02:29.339Z,1.30
2019-03-09T04:04:57.638Z,1.17
2019-03-09T04:07:25.895Z,1.20
2019-03-09T04:09:54.144Z,1.10
2019-03-09T04:12:22.430Z,1.20
2019-03-09T04:14:50.816Z,1.00
2019-03-09T04:17:19.172Z,1.40
2019-03-09T04:19:47.418Z,1.20
2019-03-09T04:22:15.917Z,1.27
2019-03-09T04:24:44.406Z,1.27
2019-03-09T04:27:12.681Z,1.30
2019-03-09T04:29:40.923Z,1.30
2019-03-09T04:32:09.170Z,1.37
2019-03-09T04:34:37.428Z,1.20
2019-03-09T04:37:05.664Z,1.30
2019-03-09T04:39:33.941Z,1.17
2019-03-09T04:42:02.173Z,1.37
2019-03-09T04:44:30.456Z,1.00
2019-03-09T04:46:58.692Z,1.20
2019-03-09T04:49:27.182Z,1.10
2019-03-09T04:51:55.453Z,1.00
2019-03-09T04:54:23.714Z,1.10
2019-03-09T04:56:52.030Z,1.20
2019-03-09T04:59:20.280Z,1.23
2019-03-09T05:01:48.541Z,1.13
2019-03-09T05:04:29.037Z,1.10
2019-03-09T05:06:57.305Z,1.00
2019-03-09T05:09:37.473Z,1.07
2019-03-09T05:12:05.734Z,1.10
2019-03-09T05:14:34.219Z,1.00
2019-03-09T05:17:02.481Z,1.10
2019-03-09T05:19:30.750Z,1.00
2019-03-09T05:21:59.021Z,1.20
2019-03-09T05:24:27.289Z,1.20
2019-03-09T05:26:55.882Z,1.00
2019-03-09T05:29:24.126Z,0.80
2019-03-09T05:31:52.369Z,0.90
2019-03-09T05:34:20.626Z,1.20
2019-03-09T05:36:48.892Z,0.80
2019-03-09T05:39:17.145Z,1.00
2019-03-09T05:41:45.404Z,0.80
2019-03-09T05:44:13.665Z,0.90
2019-03-09T05:46:41.912Z,1.13
2019-03-09T05:49:10.177Z,0.70
2019-03-09T05:51:38.426Z,1.00
2019-03-09T05:54:06.697Z,1.07
2019-03-09T05:56:34.944Z,0.90
2019-03-09T05:59:03.278Z,1.00
2019-03-09T06:01:31.573Z,1.10
2019-03-09T06:04:00.321Z,0.90
2019-03-09T06:06:28.686Z,0.90
2019-03-09T06:08:56.959Z,0.87
2019-03-09T06:11:25.208Z,1.07
2019-03-09T06:13:53.457Z,1.03
2019-03-09T06:16:21.730Z,0.90
2019-03-09T06:18:49.979Z,1.10
2019-03-09T06:21:18.240Z,1.10
2019-03-09T06:23:46.506Z,1.10
2019-03-09T06:26:14.821Z,1.00
2019-03-09T06:28:43.077Z,1.07
2019-03-09T06:31:11.340Z,1.10
2019-03-09T06:33:39.586Z,1.17
2019-03-09T06:36:10.941Z,1.10
2019-03-09T06:38:56.775Z,0.90
2019-03-09T06:41:40.105Z,1.10
2019-03-09T06:44:08.423Z,1.13
2019-03-09T06:46:36.954Z,1.10
2019-03-09T06:49:05.205Z,1.17
2019-03-09T06:51:33.467Z,1.20
2019-03-09T06:54:01.733Z,1.00
2019-03-09T06:56:30.218Z,1.17
2019-03-09T06:58:58.743Z,1.10
2019-03-09T07:01:26.986Z,1.10
2019-03-09T07:03:55.229Z,1.10
2019-03-09T07:06:23.485Z,1.10
2019-03-09T07:08:51.753Z,1.10
2019-03-09T07:11:19.999Z,1.20
2019-03-09T07:13:52.965Z,1.20
2019-03-09T07:16:19.090Z,0.90
2019-03-09T07:18:47.346Z,1.20
2019-03-09T07:21:15.609Z,1.30
2019-03-09T07:23:43.863Z,1.30
2019-03-09T07:26:12.118Z,1.43
2019-03-09T07:28:40.371Z,1.30
2019-03-09T07:31:08.616Z,1.30
2019-03-09T07:33:36.921Z,1.43
2019-03-09T07:36:05.297Z,1.30
2019-03-09T07:38:33.781Z,1.47
2019-03-09T07:41:02.070Z,1.40
2019-03-09T07:43:30.370Z,1.70
2019-03-09T07:45:58.628Z,1.63
2019-03-09T07:48:26.906Z,1.60
2019-03-09T07:50:55.154Z,1.60
2019-03-09T07:53:23.437Z,1.70
2019-03-09T07:55:51.700Z,2.33
2019-03-09T07:58:19.961Z,1.90
2019-03-09T08:00:48.233Z,2.20
2019-03-09T08:03:16.481Z,2.20
2019-03-09T08:05:44.853Z,1.90
2019-03-09T08:08:13.131Z,2.00
2019-03-09T08:10:41.444Z,1.87
2019-03-09T08:13:09.711Z,2.20
2019-03-09T08:15:37.958Z,2.20
2019-03-09T08:18:06.236Z,2.00
2019-03-09T08:20:34.745Z,2.10
2019-03-09T08:23:03.087Z,2.33
2019-03-09T08:25:31.328Z,2.13
2019-03-09T08:27:59.622Z,1.90
2019-03-09T08:30:28.436Z,1.90
2019-03-09T08:32:56.686Z,2.33
2019-03-09T08:35:24.961Z,2.30
2019-03-09T08:37:53.541Z,2.10
2019-03-09T08:40:22.137Z,2.03
2019-03-09T08:42:50.454Z,1.93
2019-03-09T08:45:19.647Z,2.37
2019-03-09T08:47:52.237Z,2.10
2019-03-09T08:50:21.791Z,2.40
2019-03-09T08:52:50.090Z,1.77
2019-03-09T08:55:18.439Z,1.97
2019-03-09T08:57:46.791Z,1.83
2019-03-09T09:00:23.636Z,2.30
2019-03-09T09:02:52.217Z,2.63
2019-03-09T09:05:20.457Z,2.13
2019-03-09T09:07:48.757Z,2.10
2019-03-09T09:10:17.024Z,2.10
2019-03-09T09:12:45.719Z,1.93
2019-03-09T09:15:17.736Z,2.30
2019-03-09T09:17:45.998Z,2.17
2019-03-09T09:20:22.705Z,2.23
2019-03-09T09:22:50.979Z,2.80
2019-03-09T09:25:19.222Z,2.17
2019-03-09T09:27:47.483Z,2.47
2019-03-09T09:30:27.337Z,2.77
2019-03-09T09:32:55.601Z,2.50
2019-03-09T09:35:23.877Z,2.83
2019-03-09T09:37:52.705Z,2.93
2019-03-09T09:40:22.626Z,3.33
2019-03-09T09:42:50.986Z,3.90
2019-03-09T09:45:19.498Z,4.07
2019-03-09T09:47:47.746Z,3.50
2019-03-09T09:50:16.561Z,4.40
2019-03-09T09:52:44.874Z,4.27
2019-03-09T09:55:18.039Z,3.40
2019-03-09T09:57:46.319Z,3.80
2019-03-09T10:00:25.465Z,3.80
2019-03-09T10:02:53.742Z,3.30
2019-03-09T10:05:22.426Z,3.63
2019-03-09T10:07:50.766Z,4.63
2019-03-09T10:10:21.309Z,4.03
2019-03-09T10:12:49.578Z,4.00
2019-03-09T10:15:30.162Z,4.47
2019-03-09T10:17:58.685Z,4.57
2019-03-09T10:20:26.965Z,5.10
2019-03-09T10:23:03.700Z,10.33
2019-03-09T10:25:25.222Z,9.47
2019-03-09T10:27:53.477Z,10.03
2019-03-09T10:30:25.102Z,9.68
2019-03-09T10:32:53.333Z,9.50
2019-03-09T10:35:21.601Z,8.60
2019-03-09T10:37:50.029Z,8.10
2019-03-09T10:40:18.293Z,7.40
2019-03-09T10:42:46.568Z,7.33
2019-03-09T10:45:16.386Z,7.73
2019-03-09T10:47:44.630Z,6.83
2019-03-09T10:50:14.977Z,7.47
2019-03-09T10:52:43.265Z,7.33
2019-03-09T10:55:19.400Z,7.00
2019-03-09T10:57:47.657Z,6.80
2019-03-09T11:00:19.163Z,6.75
2019-03-09T11:02:47.428Z,6.00
2019-03-09T11:05:15.677Z,7.28
2019-03-09T11:07:43.933Z,6.30
2019-03-09T11:10:12.207Z,6.53
2019-03-09T11:12:40.759Z,6.27
2019-03-09T11:15:09.301Z,6.67
2019-03-09T11:17:37.548Z,6.20
2019-03-09T11:20:09.135Z,6.40
2019-03-09T11:22:37.697Z,8.98
2019-03-09T11:25:06.300Z,8.45
2019-03-09T11:27:34.556Z,7.90
2019-03-09T11:30:03.074Z,7.05
2019-03-09T11:32:31.347Z,6.83
2019-03-09T11:34:59.602Z,6.47
2019-03-09T11:37:27.874Z,6.58
2019-03-09T11:39:56.132Z,5.87
2019-03-09T11:42:24.413Z,5.97
2019-03-09T11:44:52.938Z,6.28
2019-03-09T11:47:21.187Z,6.40
2019-03-09T11:49:49.469Z,5.00
2019-03-09T11:52:20.314Z,5.50
2019-03-09T11:54:47.722Z,5.67
2019-03-09T11:57:15.974Z,5.43
2019-03-09T11:59:49.345Z,6.90
2019-03-09T12:02:17.810Z,6.73
2019-03-09T12:04:47.324Z,5.93
2019-03-09T12:07:15.673Z,6.37
2019-03-09T12:09:43.933Z,5.40
2019-03-09T12:12:12.446Z,7.53
2019-03-09T12:14:40.714Z,8.20
2019-03-09T12:17:12.639Z,7.00
2019-03-09T12:19:38.941Z,7.90
2019-03-09T12:22:07.213Z,7.33
2019-03-09T12:24:35.722Z,9.03
2019-03-09T12:27:04.226Z,8.07
2019-03-09T12:29:32.714Z,7.30
2019-03-09T12:32:00.983Z,7.47
2019-03-09T12:34:29.231Z,6.10
2019-03-09T12:36:57.503Z,7.27
2019-03-09T12:39:25.749Z,6.90
2019-03-09T12:41:54.043Z,5.70
2019-03-09T12:44:22.557Z,6.07
2019-03-09T12:46:50.821Z,6.07
2019-03-09T12:49:19.171Z,5.90
2019-03-09T12:51:47.443Z,5.80
2019-03-09T12:54:15.699Z,5.90
2019-03-09T12:56:43.972Z,5.08
2019-03-09T12:59:12.346Z,5.70
2019-03-09T13:01:40.840Z,5.97
2019-03-09T13:04:10.857Z,5.10
2019-03-09T13:06:39.126Z,4.90
2019-03-09T13:09:07.393Z,4.70
2019-03-09T13:11:35.733Z,5.90
2019-03-09T13:14:04.006Z,5.40
2019-03-09T13:16:32.489Z,3.87
2019-03-09T13:19:01.002Z,4.87
2019-03-09T13:21:29.245Z,5.13
2019-03-09T13:23:57.516Z,4.53
2019-03-09T13:26:26.014Z,8.43
2019-03-09T13:28:54.274Z,4.43
2019-03-09T13:31:22.522Z,4.40
2019-03-09T13:33:50.785Z,6.27
2019-03-09T13:36:19.064Z,7.60
2019-03-09T13:38:47.313Z,5.37
2019-03-09T13:41:15.561Z,5.10
2019-03-09T13:43:44.075Z,4.30
2019-03-09T13:46:12.329Z,4.70
2019-03-09T13:48:40.669Z,5.03
2019-03-09T13:51:08.921Z,4.90
2019-03-09T13:53:37.189Z,4.53
2019-03-09T13:56:05.436Z,4.53
2019-03-09T13:58:33.701Z,4.63
2019-03-09T14:01:01.954Z,4.70
2019-03-09T14:03:30.224Z,4.37
2019-03-09T14:05:58.521Z,4.77
2019-03-09T14:08:27.013Z,4.07
2019-03-09T14:10:55.279Z,5.47
2019-03-09T14:13:23.526Z,5.00
2019-03-09T14:15:51.793Z,7.00
2019-03-09T14:18:20.278Z,6.77
2019-03-09T14:20:48.608Z,6.17
2019-03-09T14:23:16.900Z,8.47
2019-03-09T14:25:45.173Z,5.93
2019-03-09T14:28:13.438Z,6.07
2019-03-09T14:30:41.930Z,6.57
2019-03-09T14:33:10.169Z,9.63
2019-03-09T14:35:38.418Z,9.07
2019-03-09T14:38:06.700Z,8.50
2019-03-09T14:40:35.022Z,8.43
2019-03-09T14:43:03.294Z,7.07
2019-03-09T14:45:31.542Z,8.10
2019-03-09T14:47:59.821Z,9.83
2019-03-09T14:50:28.073Z,12.80
2019-03-09T14:52:56.320Z,8.93
2019-03-09T14:55:24.601Z,11.10
2019-03-09T14:57:52.849Z,10.17
2019-03-09T15:00:28.279Z,12.67
2019-03-09T15:02:56.546Z,10.90
2019-03-09T15:05:24.850Z,9.97
2019-03-09T15:07:53.093Z,9.47
2019-03-09T15:10:21.337Z,9.00
2019-03-09T15:12:49.683Z,9.00
2019-03-09T15:15:19.080Z,15.40
2019-03-09T15:17:47.357Z,9.63
2019-03-09T15:20:16.298Z,11.03
2019-03-09T15:22:44.889Z,7.97
2019-03-09T15:25:20.595Z,8.17
2019-03-09T15:27:48.849Z,18.17
2019-03-09T15:30:18.270Z,21.80
2019-03-09T15:32:46.513Z,10.50
2019-03-09T15:35:16.684Z,10.43
2019-03-09T15:37:45.021Z,8.20
2019-03-09T15:40:17.592Z,8.13
2019-03-09T15:42:45.950Z,6.40
2019-03-09T15:45:20.958Z,6.80
2019-03-09T15:47:49.222Z,6.33
2019-03-09T15:50:18.403Z,5.80
2019-03-09T15:52:46.690Z,5.47
2019-03-09T15:55:15.063Z,5.53
2019-03-09T15:57:43.413Z,5.23
2019-03-09T16:00:19.407Z,7.80
2019-03-09T16:05:21.518Z,6.57
2019-03-09T16:07:49.758Z,6.17
2019-03-09T16:10:19.486Z,4.67
2019-03-09T16:12:47.756Z,5.47
2019-03-09T16:15:16.454Z,5.93
2019-03-09T16:17:44.976Z,5.70
2019-03-09T16:20:16.506Z,5.67
2019-03-09T16:22:44.810Z,5.37
2019-03-09T16:25:13.109Z,6.60
2019-03-09T16:27:41.735Z,5.93
2019-03-09T16:30:22.968Z,6.37
2019-03-09T16:32:51.309Z,5.57
2019-03-09T16:35:19.544Z,7.47
2019-03-09T16:37:48.847Z,5.13
2019-03-09T16:40:19.385Z,5.27
2019-03-09T16:42:47.659Z,9.40
2019-03-09T16:45:15.911Z,4.87
2019-03-09T16:47:44.186Z,24.83
2019-03-09T16:50:14.242Z,4.80
2019-03-09T16:52:42.493Z,5.23
2019-03-09T16:55:10.960Z,4.73
2019-03-09T16:57:39.224Z,4.90
2019-03-09T17:00:19.366Z,4.40
2019-03-09T17:02:47.681Z,4.23
2019-03-09T17:05:15.962Z,5.43
2019-03-09T17:07:44.449Z,6.20
2019-03-09T17:10:14.813Z,8.40
2019-03-09T17:12:43.089Z,7.43
2019-03-09T17:15:22.009Z,5.20
2019-03-09T17:17:50.281Z,4.67
2019-03-09T17:20:18.581Z,4.30
2019-03-09T17:22:46.878Z,31.07
2019-03-09T17:25:15.465Z,7.80
2019-03-09T17:27:43.725Z,10.10
2019-03-09T17:30:17.697Z,6.80
2019-03-09T17:32:45.966Z,6.20
2019-03-09T17:35:14.318Z,5.20
2019-03-09T17:37:42.675Z,4.77
2019-03-09T17:40:12.754Z,5.47
2019-03-09T17:42:41.013Z,4.77
2019-03-09T17:45:12.370Z,5.27
2019-03-09T17:47:40.902Z,4.50
2019-03-09T17:50:11.401Z,4.77
2019-03-09T17:52:39.900Z,4.53
2019-03-09T17:55:09.698Z,3.77
2019-03-09T17:57:37.977Z,3.90
2019-03-09T18:00:11.435Z,3.50
2019-03-09T18:02:39.866Z,2.73
2019-03-09T18:05:08.378Z,3.50
2019-03-09T18:07:36.649Z,3.77
2019-03-09T18:10:25.635Z,2.87
2019-03-09T18:12:53.953Z,3.90
2019-03-09T18:15:22.220Z,3.57
2019-03-09T18:17:50.469Z,3.10
2019-03-09T18:20:18.738Z,2.80
2019-03-09T18:22:46.981Z,3.20
2019-03-09T18:25:15.490Z,2.97
2019-03-09T18:27:43.732Z,2.97
2019-03-09T18:30:12.669Z,2.80
2019-03-09T18:32:41.000Z,2.57
2019-03-09T18:35:10.682Z,2.50
2019-03-09T18:37:38.944Z,2.77
2019-03-09T18:40:09.929Z,2.53
2019-03-09T18:42:38.205Z,3.00
2019-03-09T18:45:09.968Z,2.57
2019-03-09T18:47:38.240Z,2.67
2019-03-09T18:50:07.151Z,1.93
2019-03-09T18:52:35.417Z,2.33
2019-03-09T18:55:04.466Z,2.20
2019-03-09T18:57:32.721Z,1.90
2019-03-09T19:00:00.984Z,2.10
2019-03-09T19:02:29.242Z,2.03
2019-03-09T19:04:57.485Z,1.70
2019-03-09T19:07:25.749Z,2.03
2019-03-09T19:09:53.998Z,1.73
2019-03-09T19:12:22.261Z,1.97
2019-03-09T19:14:50.519Z,2.10
2019-03-09T19:17:19.028Z,2.00
2019-03-09T19:19:47.293Z,1.70
2019-03-09T19:22:15.561Z,1.93
2019-03-09T19:24:44.058Z,2.07
2019-03-09T19:27:12.325Z,1.60
2019-03-09T19:29:40.805Z,1.97
2019-03-09T19:32:09.070Z,1.90
2019-03-09T19:34:37.637Z,1.80
2019-03-09T19:37:05.925Z,2.03
2019-03-09T19:39:34.408Z,1.57
2019-03-09T19:42:02.910Z,1.80
2019-03-09T19:44:31.153Z,1.60
2019-03-09T19:46:59.417Z,1.90
2019-03-09T19:49:27.677Z,1.80
2019-03-09T19:51:55.941Z,1.87
2019-03-09T19:54:24.185Z,1.53
2019-03-09T19:56:52.449Z,2.00
2019-03-09T19:59:20.717Z,1.53
2019-03-09T20:01:48.966Z,1.57
2019-03-09T20:04:17.228Z,1.53
2019-03-09T20:06:45.485Z,1.60
2019-03-09T20:09:13.759Z,2.00
2019-03-09T20:11:42.259Z,1.60
2019-03-09T20:14:10.497Z,1.90
2019-03-09T20:16:39.010Z,1.80
2019-03-09T20:19:07.249Z,1.67
2019-03-09T20:21:35.508Z,1.70
2019-03-09T20:24:03.778Z,2.03
2019-03-09T20:26:32.017Z,1.87
2019-03-09T20:29:00.274Z,1.70
2019-03-09T20:31:28.536Z,1.67
2019-03-09T20:33:56.818Z,1.80
2019-03-09T20:36:25.083Z,1.77
2019-03-09T20:38:53.381Z,1.70
2019-03-09T20:41:21.641Z,1.60
2019-03-09T20:43:49.910Z,1.60
2019-03-09T20:46:18.156Z,1.70
2019-03-09T20:48:46.427Z,1.70
2019-03-09T20:51:14.699Z,2.00
2019-03-09T20:53:43.182Z,1.90
2019-03-09T20:56:11.509Z,1.83
2019-03-09T20:58:39.796Z,1.77
2019-03-09T21:01:08.290Z,1.80
2019-03-09T21:03:36.853Z,1.80
2019-03-09T21:06:05.430Z,1.90
2019-03-09T21:08:33.703Z,1.80
2019-03-09T21:11:04.213Z,1.90
2019-03-09T21:13:31.942Z,2.10
2019-03-09T21:16:00.219Z,2.00
2019-03-09T21:18:28.693Z,2.53
2019-03-09T21:20:56.956Z,2.27
2019-03-09T21:23:25.449Z,2.27
2019-03-09T21:25:53.717Z,2.00
2019-03-09T21:28:21.975Z,2.30
2019-03-09T21:30:50.459Z,2.07
2019-03-09T21:33:18.970Z,2.03
2019-03-09T21:35:47.213Z,2.03
2019-03-09T21:38:15.725Z,2.37
2019-03-09T21:40:44.239Z,2.07
2019-03-09T21:43:12.548Z,2.13
2019-03-09T21:45:40.798Z,2.20
2019-03-09T21:48:09.050Z,2.00
2019-03-09T21:50:37.566Z,2.33
2019-03-09T21:53:06.056Z,2.17
2019-03-09T21:55:34.306Z,2.07
2019-03-09T21:58:02.577Z,2.20
2019-03-09T22:00:30.821Z,2.20
2019-03-09T22:02:59.338Z,2.40
2019-03-09T22:05:27.583Z,2.10
2019-03-09T22:07:56.116Z,2.07
2019-03-09T22:10:24.465Z,1.83
2019-03-09T22:12:52.709Z,2.00
2019-03-09T22:15:20.968Z,2.00
2019-03-09T22:17:49.242Z,2.00
2019-03-09T22:20:17.726Z,2.17
2019-03-09T22:22:45.998Z,2.30
2019-03-09T22:25:15.277Z,1.93
2019-03-09T22:27:43.983Z,2.20
2019-03-09T22:30:17.970Z,2.20
2019-03-09T22:32:46.236Z,1.73
2019-03-09T22:35:14.657Z,2.00
2019-03-09T22:37:42.921Z,2.30
2019-03-09T22:40:13.562Z,2.17
2019-03-09T22:42:41.843Z,2.23
2019-03-09T22:45:11.720Z,1.73
2019-03-09T22:47:39.977Z,2.47
2019-03-09T22:50:13.693Z,2.20
2019-03-09T22:52:41.933Z,2.17
2019-03-09T22:55:10.434Z,2.40
2019-03-09T22:57:38.681Z,2.40
2019-03-09T23:00:10.148Z,2.67
2019-03-09T23:02:38.452Z,2.70
2019-03-09T23:05:08.577Z,2.90
2019-03-09T23:07:36.821Z,3.10
2019-03-09T23:10:10.825Z,2.93
2019-03-09T23:12:39.081Z,3.47
2019-03-09T23:15:10.390Z,3.20
2019-03-09T23:17:38.649Z,3.53
2019-03-09T23:20:09.558Z,3.87
2019-03-09T23:22:38.053Z,4.07
2019-03-09T23:25:07.098Z,4.07
2019-03-09T23:27:35.505Z,4.60
2019-03-09T23:30:07.211Z,5.33
2019-03-09T23:32:35.521Z,5.40
2019-03-09T23:35:04.025Z,6.53
2019-03-09T23:37:32.518Z,7.50
2019-03-09T23:40:01.045Z,7.47
2019-03-09T23:42:29.289Z,8.00
2019-03-09T23:47:50.294Z,10.37
2019-03-09T23:50:31.751Z,10.53
2019-03-09T23:53:12.901Z,11.50
2019-03-09T23:55:53.933Z,14.37
2019-03-09T23:58:35.033Z,16.43
